Time;durP1;ratioP1;P1;durP2;ratioP2;P2;SDS_P1;SDS_P2;PMS_P1;PMS_P2;Temp;Humidity;BMP_temperature;BMP_pressure;BME280_temperature;BME280_humidity;BME280_pressure;Samples;Min_cycle;Max_cycle;Signal;HPM_P1;HPM_P2
2021/03/05 00:02:30;;;;;;;4.64;4.19;;;;;;;5.73;79.19;99646.28;2036014;76;21246;-73
2021/03/05 00:05:37;;;;;;;4.54;4.20;;;;;;;5.68;79.56;99656.50;2037907;79;21063;-73
2021/03/05 00:08:39;;;;;;;4.39;3.99;;;;;;;5.65;80.06;99663.31;2038277;79;20539;-73
2021/03/05 00:11:41;;;;;;;4.36;4.06;;;;;;;5.63;80.15;99665.00;2038125;79;20300;-73
2021/03/05 00:14:44;;;;;;;4.03;3.72;;;;;;;5.62;80.28;99670.97;2037079;79;20340;-73
2021/03/05 00:17:46;;;;;;;4.66;4.25;;;;;;;5.57;79.54;99664.88;2041365;76;21433;-73
2021/03/05 00:20:51;;;;;;;5.06;4.34;;;;;;;5.55;79.01;99664.81;2042857;79;20323;-73
2021/03/05 00:23:52;;;;;;;4.72;4.32;;;;;;;5.56;78.81;99669.13;2043315;79;21113;-73
2021/03/05 00:26:54;;;;;;;5.00;4.60;;;;;;;5.55;78.73;99675.13;2043059;79;20331;-73
2021/03/05 00:29:56;;;;;;;4.50;4.10;;;;;;;5.56;78.71;99673.41;2043147;79;20312;-73
2021/03/05 00:32:58;;;;;;;5.40;4.54;;;;;;;5.55;78.42;99675.13;2083072;68;22752;-73
2021/03/05 00:36:00;;;;;;;4.78;4.29;;;;;;;5.54;78.43;99673.38;2022216;80;20454;-73
2021/03/05 00:39:02;;;;;;;5.44;4.94;;;;;;;5.49;78.09;99677.56;2021589;80;20311;-73
2021/03/05 00:42:04;;;;;;;5.39;4.90;;;;;;;5.49;77.95;99679.28;2022280;80;21149;-73
2021/03/05 00:45:07;;;;;;;5.61;4.99;;;;;;;5.50;78.20;99686.19;2021386;80;20485;-73
2021/03/05 00:48:10;;;;;;;6.40;5.39;;;;;;;5.49;78.22;99692.16;2027078;78;23549;-73
2021/03/05 00:51:12;;;;;;;7.50;6.00;;;;;;;5.45;78.04;99692.09;2026918;79;20373;-73
2021/03/05 00:54:14;;;;;;;5.81;5.05;;;;;;;5.43;78.10;99701.50;2026496;79;20332;-74
2021/03/05 00:57:15;;;;;;;6.94;5.91;;;;;;;5.42;78.30;99694.63;2027138;79;20711;-74
2021/03/05 01:00:17;;;;;;;7.32;5.43;;;;;;;5.39;78.72;99707.44;2026014;77;25228;-74
2021/03/05 01:03:19;;;;;;;6.47;5.86;;;;;;;5.37;78.85;99709.09;2021672;80;20377;-74
2021/03/05 01:06:21;;;;;;;6.64;5.93;;;;;;;5.37;78.61;99709.09;2022074;80;20341;-75
2021/03/05 01:09:23;;;;;;;6.56;5.72;;;;;;;5.35;78.27;99707.31;2022075;79;20325;-73
2021/03/05 01:12:24;;;;;;;8.05;6.31;;;;;;;5.36;78.12;99717.66;2021745;80;20324;-73
2021/03/05 01:15:26;;;;;;;7.36;6.39;;;;;;;5.36;78.19;99720.22;2021611;77;21576;-74
2021/03/05 01:18:28;;;;;;;10.54;6.84;;;;;;;5.34;78.60;99721.91;2027394;79;20302;-73
2021/03/05 01:21:29;;;;;;;8.64;6.96;;;;;;;5.33;78.84;99722.72;2026344;79;20357;-73
2021/03/05 01:24:31;;;;;;;7.34;6.57;;;;;;;5.37;78.58;99732.25;2027274;79;20302;-73
2021/03/05 01:27:36;;;;;;;8.45;7.16;;;;;;;5.39;78.51;99729.75;2027120;79;20831;-74
2021/03/05 01:30:38;;;;;;;9.55;7.18;;;;;;;5.41;78.44;99738.38;2025203;79;20343;-73
2021/03/05 01:33:41;;;;;;;9.59;6.85;;;;;;;5.37;77.28;99739.97;2022271;80;20361;-73
2021/03/05 01:36:43;;;;;;;11.19;7.96;;;;;;;5.35;76.68;99741.66;2021578;80;20359;-73
2021/03/05 01:39:44;;;;;;;11.91;8.07;;;;;;;5.26;74.51;99741.47;2021966;80;20315;-73
2021/03/05 01:42:46;;;;;;;11.71;7.79;;;;;;;5.15;73.64;99740.34;2021494;80;20345;-73
2021/03/05 01:45:48;;;;;;;11.31;7.76;;;;;;;5.09;73.17;99735.94;2021562;80;20342;-73
2021/03/05 01:48:50;;;;;;;14.48;8.64;;;;;;;5.06;73.13;99735.88;2022079;80;20336;-74
2021/03/05 01:51:52;;;;;;;13.46;8.06;;;;;;;5.02;73.29;99734.03;2022029;80;20365;-74
2021/03/05 01:54:54;;;;;;;12.26;8.24;;;;;;;4.99;73.26;99743.41;2021487;80;20823;-73
2021/03/05 01:57:56;;;;;;;13.48;8.54;;;;;;;4.96;73.49;99751.03;2021531;80;20330;-74
2021/03/05 02:01:01;;;;;;;16.05;8.43;;;;;;;4.97;73.91;99751.09;2025018;80;20555;-74
2021/03/05 02:04:11;;;;;;;14.27;9.66;;;;;;;4.94;73.84;99748.44;2022060;80;20849;-74
2021/03/05 02:07:32;;;;;;;14.81;9.04;;;;;;;4.91;73.81;99745.81;2019849;80;20947;-74
2021/03/05 02:10:34;;;;;;;13.84;8.74;;;;;;;4.91;73.26;99748.38;2018950;80;20312;-73
2021/03/05 02:13:36;;;;;;;14.06;8.55;;;;;;;4.90;73.55;99744.06;2019135;80;20343;-74
2021/03/05 02:16:46;;;;;;;14.39;8.29;;;;;;;4.83;73.67;99743.03;2019273;80;20447;-74
2021/03/05 02:20:12;;;;;;;16.99;9.40;;;;;;;4.79;73.42;99743.78;2019791;80;20399;-74
2021/03/05 02:23:45;;;;;;;12.76;8.09;;;;;;;4.79;73.83;99754.09;2019560;80;20804;-73
2021/03/05 02:27:17;;;;;;;13.56;8.41;;;;;;;4.80;73.36;99752.38;2019754;80;20984;-74
2021/03/05 02:30:46;;;;;;;14.45;8.51;;;;;;;4.75;72.64;99746.25;2019232;80;20351;-75
2021/03/05 02:34:10;;;;;;;13.36;8.38;;;;;;;4.71;72.21;99750.47;2019862;80;20342;-74
2021/03/05 02:37:13;;;;;;;16.31;7.93;;;;;;;4.69;71.81;99752.13;2020193;80;20384;-74
2021/03/05 02:40:23;;;;;;;11.68;7.32;;;;;;;4.71;72.28;99752.16;2020320;80;21171;-74
2021/03/05 02:43:29;;;;;;;14.95;7.99;;;;;;;4.67;72.46;99753.81;2020556;80;21247;-74
2021/03/05 02:46:31;;;;;;;12.45;7.71;;;;;;;4.63;72.45;99759.69;2020252;80;20326;-74
2021/03/05 02:49:39;;;;;;;14.18;8.52;;;;;;;4.62;72.58;99754.50;2019441;80;20397;-74
2021/03/05 02:52:42;;;;;;;14.98;8.36;;;;;;;4.64;72.82;99763.97;2019977;80;20311;-74
2021/03/05 02:55:48;;;;;;;15.24;8.13;;;;;;;4.67;73.06;99755.47;2019719;80;20381;-73
2021/03/05 02:58:53;;;;;;;16.08;8.51;;;;;;;4.65;72.93;99754.56;2020176;80;21206;-73
2021/03/05 03:01:57;;;;;;;16.06;8.19;;;;;;;4.64;73.50;99758.84;2020732;80;20377;-74
2021/03/05 03:05:00;;;;;;;14.24;7.88;;;;;;;4.62;73.98;99757.06;2020452;80;20544;-73
2021/03/05 03:08:20;;;;;;;14.09;7.38;;;;;;;4.62;74.07;99757.94;2024305;80;20473;-73
2021/03/05 03:11:23;;;;;;;14.13;7.99;;;;;;;4.63;74.57;99754.53;2021034;80;20351;-73
2021/03/05 03:14:26;;;;;;;17.80;8.11;;;;;;;4.64;74.37;99757.97;2021424;80;20989;-74
2021/03/05 03:17:28;;;;;;;14.41;7.99;;;;;;;4.63;74.74;99759.69;2021472;80;20312;-73
2021/03/05 03:20:30;;;;;;;16.45;8.82;;;;;;;4.61;74.84;99751.06;2020989;80;20346;-73
2021/03/05 03:23:33;;;;;;;16.34;9.04;;;;;;;4.60;74.13;99754.47;2020901;80;20323;-73
2021/03/05 03:26:39;;;;;;;15.49;7.96;;;;;;;4.60;73.62;99756.16;2021058;80;20342;-72
2021/03/05 03:29:42;;;;;;;16.54;8.38;;;;;;;4.61;74.06;99761.34;2021967;80;20738;-73
2021/03/05 03:32:45;;;;;;;15.05;8.11;;;;;;;4.62;73.86;99757.94;2021415;80;21285;-74
2021/03/05 03:35:47;;;;;;;16.20;8.56;;;;;;;4.64;74.33;99765.69;2021007;80;20457;-73
2021/03/05 03:38:48;;;;;;;13.41;7.85;;;;;;;4.62;74.36;99759.63;2021015;80;20342;-74
2021/03/05 03:41:50;;;;;;;15.31;8.25;;;;;;;4.59;73.83;99765.59;2020913;80;20373;-73
2021/03/05 03:44:52;;;;;;;14.60;8.61;;;;;;;4.58;73.77;99766.41;2020638;80;20925;-73
2021/03/05 03:47:56;;;;;;;14.50;8.65;;;;;;;4.52;74.43;99773.97;2021166;80;20328;-73
2021/03/05 03:51:02;;;;;;;15.26;8.84;;;;;;;4.50;74.42;99770.50;2021353;80;20951;-72
2021/03/05 03:54:03;;;;;;;16.14;8.76;;;;;;;4.52;74.08;99776.56;2020757;80;20323;-73
2021/03/05 03:57:11;;;;;;;17.46;8.75;;;;;;;4.54;74.12;99770.63;2021296;80;20418;-73
2021/03/05 04:00:15;;;;;;;15.18;8.36;;;;;;;4.52;73.96;99774.84;2020781;80;20316;-73
2021/03/05 04:03:18;;;;;;;14.26;8.84;;;;;;;4.57;74.21;99774.97;2020364;80;20435;-73
2021/03/05 04:06:26;;;;;;;14.94;7.64;;;;;;;4.58;74.38;99779.28;2019316;80;20327;-72
2021/03/05 04:09:29;;;;;;;15.30;8.30;;;;;;;4.59;74.88;99786.16;2020482;80;20300;-73
2021/03/05 04:12:32;;;;;;;16.55;8.34;;;;;;;4.54;74.94;99780.91;2019897;80;21151;-73
2021/03/05 04:15:35;;;;;;;15.21;8.51;;;;;;;4.50;74.72;99786.81;2019145;80;20331;-72
2021/03/05 04:18:39;;;;;;;12.57;7.47;;;;;;;4.53;74.59;99791.16;2020268;80;20331;-73
2021/03/05 04:21:40;;;;;;;16.01;8.06;;;;;;;4.52;74.59;99789.41;2019648;80;21337;-72
2021/03/05 04:24:42;;;;;;;16.17;8.77;;;;;;;4.48;74.18;99795.28;2019376;80;20417;-73
2021/03/05 04:27:45;;;;;;;15.91;8.57;;;;;;;4.46;74.11;99800.38;2023268;80;20351;-73
2021/03/05 04:30:46;;;;;;;18.05;9.56;;;;;;;4.48;74.38;99800.41;2019279;80;20327;-73
2021/03/05 04:33:49;;;;;;;15.56;8.71;;;;;;;4.51;74.58;99803.97;2019975;80;20339;-73
2021/03/05 04:36:50;;;;;;;17.06;9.13;;;;;;;4.44;74.75;99817.47;2018854;80;20409;-74
2021/03/05 04:39:52;;;;;;;14.71;8.10;;;;;;;4.45;74.95;99810.63;2020148;80;20796;-72
2021/03/05 04:42:53;;;;;;;16.14;8.07;;;;;;;4.45;74.86;99808.06;2020046;80;20312;-72
2021/03/05 04:45:55;;;;;;;15.27;8.39;;;;;;;4.45;74.92;99815.78;2019975;79;20923;-73
2021/03/05 04:48:57;;;;;;;16.05;8.77;;;;;;;4.44;75.11;99814.03;2020210;80;20350;-73
2021/03/05 04:51:58;;;;;;;16.55;8.74;;;;;;;4.43;74.89;99813.16;2020120;80;20433;-72
2021/03/05 04:55:01;;;;;;;13.57;8.14;;;;;;;4.43;74.51;99812.28;2019424;80;20351;-73
2021/03/05 04:58:03;;;;;;;18.24;9.32;;;;;;;4.41;74.51;99819.97;2019601;80;20308;-73
2021/03/05 05:01:05;;;;;;;15.66;8.31;;;;;;;4.39;74.81;99819.06;2019228;80;21303;-72
2021/03/05 05:04:06;;;;;;;15.04;8.57;;;;;;;4.35;75.12;99824.94;2019943;80;20332;-72
2021/03/05 05:07:08;;;;;;;13.81;8.20;;;;;;;4.36;75.22;99825.81;2019683;80;20316;-72
2021/03/05 05:10:10;;;;;;;15.59;8.21;;;;;;;4.37;75.28;99831.00;2019132;80;20369;-73
2021/03/05 05:13:12;;;;;;;13.49;8.01;;;;;;;4.39;75.35;99828.47;2019196;80;20733;-73
2021/03/05 05:16:13;;;;;;;16.30;7.82;;;;;;;4.37;75.95;99835.28;2018824;80;20805;-72
2021/03/05 05:19:15;;;;;;;16.39;8.75;;;;;;;4.33;76.10;99836.03;2019390;80;20414;-73
2021/03/05 05:22:17;;;;;;;14.52;8.27;;;;;;;4.30;76.18;99836.78;2020124;80;20324;-73
2021/03/05 05:25:19;;;;;;;19.09;8.16;;;;;;;4.32;76.28;99836.84;2019258;80;20331;-72
2021/03/05 05:28:21;;;;;;;18.46;8.74;;;;;;;4.29;76.30;99840.19;2019624;80;20957;-73
2021/03/05 05:31:22;;;;;;;15.09;8.39;;;;;;;4.30;76.46;99841.06;2018807;80;20345;-73
2021/03/05 05:34:25;;;;;;;17.91;9.16;;;;;;;4.32;76.57;99836.84;2019140;80;20323;-72
2021/03/05 05:37:28;;;;;;;15.18;7.93;;;;;;;4.28;76.88;99846.16;2019378;80;20345;-73
2021/03/05 05:40:30;;;;;;;14.94;7.75;;;;;;;4.29;76.89;99847.91;2019249;80;20412;-73
2021/03/05 05:43:32;;;;;;;15.68;8.88;;;;;;;4.25;77.18;99846.94;2019068;80;20809;-74
2021/03/05 05:46:34;;;;;;;16.71;8.51;;;;;;;4.24;77.36;99852.91;2019211;80;20326;-73
2021/03/05 05:49:38;;;;;;;17.08;9.01;;;;;;;4.22;77.55;99854.56;2019637;80;20367;-73
2021/03/05 05:52:41;;;;;;;14.98;8.89;;;;;;;4.22;77.89;99862.28;2019006;80;20353;-72
2021/03/05 05:55:43;;;;;;;14.64;7.96;;;;;;;4.19;76.51;99862.19;2019362;80;20333;-72
2021/03/05 05:58:46;;;;;;;21.00;8.74;;;;;;;4.22;75.37;99869.13;2019966;80;20721;-72
2021/03/05 06:01:48;;;;;;;11.84;7.30;;;;;;;4.21;74.68;99865.69;2019746;80;20321;-74
2021/03/05 06:04:57;;;;;;;12.46;7.20;;;;;;;4.26;74.40;99865.81;2019428;80;20497;-73
2021/03/05 06:07:59;;;;;;;11.89;6.20;;;;;;;4.23;73.32;99869.16;2020854;80;20920;-74
2021/03/05 06:11:01;;;;;;;10.86;6.81;;;;;;;4.23;72.18;99871.72;2020453;80;20357;-74
2021/03/05 06:14:12;;;;;;;9.64;6.45;;;;;;;4.22;71.10;99874.25;2020230;80;20726;-74
2021/03/05 06:17:14;;;;;;;9.61;5.75;;;;;;;4.20;71.01;99871.66;2019901;80;20320;-73
2021/03/05 06:20:17;;;;;;;10.19;5.81;;;;;;;4.20;71.04;99876.78;2020466;80;21143;-74
2021/03/05 06:23:18;;;;;;;8.98;5.60;;;;;;;4.16;70.93;99874.97;2018575;80;20437;-72
2021/03/05 06:26:20;;;;;;;8.27;5.80;;;;;;;4.17;71.07;99889.56;2020034;80;20312;-72
2021/03/05 06:29:23;;;;;;;8.13;5.38;;;;;;;4.17;71.10;99891.25;2020211;79;20323;-72
2021/03/05 06:32:39;;;;;;;7.74;4.88;;;;;;;4.09;70.58;99887.56;2020313;80;20388;-73
2021/03/05 06:35:41;;;;;;;6.78;4.56;;;;;;;4.03;69.26;99888.28;2019969;80;20367;-73
2021/03/05 06:38:44;;;;;;;8.39;4.89;;;;;;;4.06;69.88;99898.63;2019973;80;20296;-73
2021/03/05 06:41:56;;;;;;;8.21;5.22;;;;;;;4.06;69.63;99896.06;2020179;80;20396;-73
2021/03/05 06:45:09;;;;;;;5.93;4.53;;;;;;;4.05;69.68;99908.88;2020252;80;20367;-73
2021/03/05 06:48:11;;;;;;;6.38;4.57;;;;;;;4.04;69.65;99918.28;2019533;80;20365;-73
2021/03/05 06:51:13;;;;;;;8.35;4.44;;;;;;;4.01;68.98;99931.03;2021875;80;20339;-75
2021/03/05 06:54:15;;;;;;;7.06;4.57;;;;;;;3.99;68.77;99930.13;2019534;80;20335;-72
2021/03/05 06:57:26;;;;;;;4.82;3.71;;;;;;;3.97;68.75;99936.03;2020286;80;20333;-72
2021/03/05 07:00:29;;;;;;;5.43;3.86;;;;;;;3.96;68.85;99936.88;2019396;80;20790;-73
2021/03/05 07:03:31;;;;;;;5.35;3.94;;;;;;;3.93;68.10;99945.34;2020090;80;20397;-69
2021/03/05 07:06:33;;;;;;;6.91;4.36;;;;;;;3.95;68.46;99951.41;2020552;80;20345;-69
2021/03/05 07:09:40;;;;;;;8.55;4.30;;;;;;;3.97;68.87;99959.16;2019879;80;20365;-70
2021/03/05 07:13:03;;;;;;;5.93;4.35;;;;;;;3.96;67.76;99953.16;2019961;80;20880;-70
2021/03/05 07:16:05;;;;;;;7.70;4.06;;;;;;;3.92;68.58;99959.88;2019946;80;20354;-68
2021/03/05 07:19:10;;;;;;;6.81;4.41;;;;;;;3.93;68.87;99966.75;2019633;80;20332;-72
2021/03/05 07:22:13;;;;;;;5.51;3.81;;;;;;;3.97;68.63;99964.31;2020075;80;20661;-71
2021/03/05 07:25:16;;;;;;;5.84;3.96;;;;;;;4.00;68.48;99960.13;2020000;80;20599;-72
2021/03/05 07:28:19;;;;;;;5.75;3.92;;;;;;;3.97;67.20;99960.03;2020208;80;20439;-72
2021/03/05 07:31:24;;;;;;;5.51;4.09;;;;;;;4.03;67.55;99974.75;2019823;80;20344;-73
2021/03/05 07:34:28;;;;;;;6.85;4.24;;;;;;;4.01;67.63;99969.59;2019295;80;20352;-72
2021/03/05 07:37:37;;;;;;;7.47;5.00;;;;;;;4.03;68.05;99977.34;2020462;80;20879;-72
2021/03/05 07:40:43;;;;;;;6.84;4.35;;;;;;;4.05;68.01;99978.25;2020316;80;20359;-71
2021/03/05 07:43:45;;;;;;;4.84;3.92;;;;;;;4.09;67.82;99978.38;2020298;80;20675;-73
2021/03/05 07:46:48;;;;;;;8.89;4.21;;;;;;;4.17;68.07;99986.34;2019437;80;20308;-72
2021/03/05 07:49:50;;;;;;;7.35;4.54;;;;;;;4.22;68.53;99990.78;2020434;80;20344;-70
2021/03/05 07:52:57;;;;;;;7.30;4.35;;;;;;;4.28;68.83;99989.22;2019979;80;20352;-70
2021/03/05 07:55:58;;;;;;;7.30;4.59;;;;;;;4.34;68.72;99990.31;2020128;80;20393;-70
2021/03/05 07:59:01;;;;;;;7.06;4.84;;;;;;;4.36;67.39;99985.19;2019859;80;21156;-70
2021/03/05 08:02:04;;;;;;;9.38;4.31;;;;;;;4.36;66.42;99983.50;2019755;80;20335;-71
2021/03/05 08:05:09;;;;;;;6.75;4.60;;;;;;;4.37;66.60;99992.09;2019956;79;21008;-70
2021/03/05 08:08:16;;;;;;;8.10;4.91;;;;;;;4.40;66.62;99998.19;2019729;80;20338;-70
2021/03/05 08:11:26;;;;;;;6.97;4.95;;;;;;;4.45;66.40;99991.47;2019364;80;20920;-71
2021/03/05 08:14:28;;;;;;;6.61;4.44;;;;;;;4.51;66.45;100008.81;2019365;80;20353;-71
2021/03/05 08:17:30;;;;;;;8.98;5.25;;;;;;;4.53;66.62;100010.59;2019287;80;21376;-70
2021/03/05 08:20:35;;;;;;;8.13;5.18;;;;;;;4.52;66.38;100014.00;2020032;80;20392;-70
2021/03/05 08:23:37;;;;;;;8.32;5.38;;;;;;;4.53;66.54;100014.84;2019776;80;20340;-70
2021/03/05 08:26:57;;;;;;;10.76;7.20;;;;;;;4.58;65.93;100015.84;2020120;80;20350;-72
2021/03/05 08:30:08;;;;;;;11.29;6.53;;;;;;;4.61;65.34;100010.81;2020850;80;20716;-72
2021/03/05 08:33:27;;;;;;;7.66;5.18;;;;;;;4.60;65.08;100021.03;2019448;80;20844;-71
2021/03/05 08:36:46;;;;;;;8.18;5.59;;;;;;;4.68;66.23;100017.00;2019648;80;20562;-72
2021/03/05 08:39:47;;;;;;;8.84;5.01;;;;;;;4.75;66.11;100018.91;2019678;80;20315;-72
2021/03/05 08:42:50;;;;;;;9.19;5.40;;;;;;;4.74;64.77;100014.59;2019997;80;20780;-71
2021/03/05 08:45:57;;;;;;;6.57;4.51;;;;;;;4.79;64.82;100013.91;2019245;80;20335;-71
2021/03/05 08:48:59;;;;;;;8.52;4.46;;;;;;;4.78;63.83;100014.72;2019847;80;20304;-73
2021/03/05 08:52:02;;;;;;;7.03;4.31;;;;;;;4.87;64.57;100019.28;2020181;80;20480;-73
2021/03/05 08:55:05;;;;;;;7.78;5.11;;;;;;;4.91;63.42;100025.38;2020270;80;20377;-73
2021/03/05 08:58:07;;;;;;;7.40;5.30;;;;;;;4.97;63.72;100026.41;2020269;80;20699;-71
2021/03/05 09:01:30;;;;;;;7.13;4.25;;;;;;;5.00;63.93;100023.06;2019538;80;20326;-71
2021/03/05 09:04:40;;;;;;;7.29;4.28;;;;;;;5.12;64.03;100031.13;2019232;80;20339;-72
2021/03/05 09:07:50;;;;;;;4.04;3.64;;;;;;;5.19;63.65;100030.44;2020228;80;20345;-72
2021/03/05 09:10:59;;;;;;;6.13;4.46;;;;;;;5.15;61.14;100034.66;2019761;80;20339;-72
2021/03/05 09:14:19;;;;;;;8.48;4.74;;;;;;;5.17;61.61;100034.69;2018858;80;20359;-72
2021/03/05 09:17:20;;;;;;;;;;;;;;;5.20;61.87;100037.34;2019868;80;20964;-71
2021/03/05 09:20:33;;;;;;;5.51;3.78;;;;;;;5.33;61.50;100043.72;2020365;80;20092;-72
2021/03/05 09:23:42;;;;;;;5.64;3.69;;;;;;;5.48;62.11;100036.38;2019754;80;20218;-72
2021/03/05 09:26:46;;;;;;;4.72;3.20;;;;;;;5.63;62.25;100046.22;2020032;80;20311;-72
2021/03/05 09:29:48;;;;;;;6.55;3.33;;;;;;;5.76;61.22;100043.13;2019325;80;20366;-72
2021/03/05 09:32:54;;;;;;;4.18;3.14;;;;;;;5.85;60.50;100055.38;2019754;80;20320;-72
2021/03/05 09:36:04;;;;;;;6.61;3.46;;;;;;;5.90;59.17;100058.97;2018749;80;20434;-72
2021/03/05 09:39:05;;;;;;;4.86;3.06;;;;;;;5.98;58.43;100055.75;2019449;80;20329;-73
2021/03/05 09:42:07;;;;;;;4.24;3.13;;;;;;;6.07;57.82;100055.09;2019605;80;20341;-71
2021/03/05 09:45:09;;;;;;;3.71;2.79;;;;;;;6.17;56.34;100051.91;2019183;80;20351;-72
2021/03/05 09:48:26;;;;;;;5.07;2.90;;;;;;;6.19;56.42;100049.38;2020135;80;20357;-72
2021/03/05 09:51:37;;;;;;;5.46;3.63;;;;;;;6.31;55.24;100052.25;2019358;80;20459;-71
2021/03/05 09:54:40;;;;;;;4.91;3.03;;;;;;;6.49;56.19;100055.25;2019584;80;20345;-72
2021/03/05 09:57:42;;;;;;;7.11;3.88;;;;;;;6.81;55.90;100052.47;2019747;80;20914;-72
2021/03/05 10:00:46;;;;;;;3.99;3.34;;;;;;;6.99;54.36;100055.44;2019195;80;20333;-72
2021/03/05 10:03:57;;;;;;;4.43;3.47;;;;;;;7.00;54.54;100059.75;2019540;80;20337;-72
2021/03/05 10:06:59;;;;;;;7.95;4.80;;;;;;;6.91;54.30;100065.63;2019636;80;20554;-72
2021/03/05 10:10:08;;;;;;;8.75;4.40;;;;;;;6.82;54.62;100061.94;2019296;80;20340;-72
2021/03/05 10:13:09;;;;;;;7.91;4.93;;;;;;;6.78;55.57;100061.03;2019229;80;21112;-74
2021/03/05 10:16:21;;;;;;;6.88;4.13;;;;;;;6.60;54.74;100065.78;2019565;80;20187;-72
2021/03/05 10:19:23;;;;;;;8.25;5.01;;;;;;;6.65;55.86;100069.34;2019111;80;20324;-72
2021/03/05 10:22:27;;;;;;;5.55;4.53;;;;;;;6.58;55.31;100068.34;2019553;80;20335;-72
2021/03/05 10:25:30;;;;;;;7.50;4.89;;;;;;;6.55;55.64;100077.72;2019137;80;20328;-72
2021/03/05 10:28:31;;;;;;;6.63;4.60;;;;;;;6.57;55.92;100076.91;2019246;80;20375;-71
2021/03/05 10:31:48;;;;;;;7.93;5.13;;;;;;;6.55;55.60;100076.00;2019505;80;20331;-73
2021/03/05 10:34:52;;;;;;;9.07;4.96;;;;;;;6.69;56.69;100078.03;2019325;80;20351;-72
2021/03/05 10:37:54;;;;;;;8.36;5.57;;;;;;;6.98;56.92;100071.75;2019152;80;20354;-72
2021/03/05 10:40:56;;;;;;;11.18;6.11;;;;;;;7.04;54.90;100082.25;2019606;80;20705;-72
2021/03/05 10:44:09;;;;;;;9.13;5.25;;;;;;;6.88;53.37;100090.50;2019338;80;20336;-72
2021/03/05 10:47:13;;;;;;;10.14;6.24;;;;;;;6.83;54.12;100089.53;2019276;80;20345;-72
2021/03/05 10:50:15;;;;;;;7.66;5.34;;;;;;;6.75;53.23;100088.47;2019798;80;20340;-72
2021/03/05 10:53:17;;;;;;;8.76;5.71;;;;;;;6.73;53.61;100101.34;2019621;80;20345;-72
2021/03/05 10:56:18;;;;;;;9.65;5.94;;;;;;;6.81;54.17;100112.69;2019755;80;21047;-73
2021/03/05 10:59:22;;;;;;;10.13;6.06;;;;;;;6.96;55.16;100109.59;2020713;79;20752;-73
2021/03/05 11:02:24;;;;;;;10.32;7.54;;;;;;;7.02;54.21;100112.31;2020686;80;20342;-73
2021/03/05 11:05:25;;;;;;;9.38;5.79;;;;;;;7.07;54.36;100120.16;2019814;80;20389;-73
2021/03/05 11:08:27;;;;;;;9.95;6.22;;;;;;;7.11;54.09;100119.38;2020507;80;20863;-73
2021/03/05 11:11:33;;;;;;;9.21;6.04;;;;;;;7.18;54.60;100116.97;2019983;80;20473;-73
2021/03/05 11:14:35;;;;;;;9.20;6.11;;;;;;;7.23;53.89;100112.78;2019822;80;20379;-74
2021/03/05 11:17:37;;;;;;;10.35;6.54;;;;;;;7.37;53.56;100119.94;2019558;80;20794;-73
2021/03/05 11:20:39;;;;;;;11.29;5.72;;;;;;;7.46;53.47;100120.09;2020863;80;20608;-72
2021/03/05 11:23:41;;;;;;;10.55;6.07;;;;;;;7.43;52.55;100120.03;2020721;80;20829;-74
2021/03/05 11:26:42;;;;;;;11.51;6.41;;;;;;;7.55;53.06;100128.91;2020773;80;20336;-72
2021/03/05 11:29:44;;;;;;;8.93;6.24;;;;;;;7.46;51.88;100123.56;2021038;80;20717;-73
2021/03/05 11:32:47;;;;;;;9.66;5.71;;;;;;;7.53;52.59;100122.81;2021275;80;20862;-73
2021/03/05 11:35:49;;;;;;;6.36;4.82;;;;;;;7.61;52.03;100128.16;2020032;80;20446;-73
2021/03/05 11:38:52;;;;;;;9.09;5.57;;;;;;;7.64;51.16;100130.78;2020516;80;20457;-72
2021/03/05 11:41:54;;;;;;;7.70;5.21;;;;;;;7.75;51.22;100138.75;2024115;79;20429;-72
2021/03/05 11:44:56;;;;;;;8.30;5.09;;;;;;;7.79;50.94;100137.97;2021264;80;20354;-72
2021/03/05 11:47:58;;;;;;;7.68;4.86;;;;;;;7.88;51.20;100138.13;2021622;80;20827;-72
2021/03/05 11:51:00;;;;;;;8.41;4.28;;;;;;;7.74;49.92;100135.31;2022742;80;20959;-70
2021/03/05 11:54:01;;;;;;;7.71;4.75;;;;;;;7.89;50.86;100132.13;2021744;80;20344;-73
2021/03/05 11:57:04;;;;;;;5.39;4.36;;;;;;;8.07;50.44;100134.16;2022145;80;20433;-73
2021/03/05 12:00:07;;;;;;;4.93;3.81;;;;;;;7.96;47.71;100136.56;2021842;80;20361;-72
2021/03/05 12:03:09;;;;;;;4.85;3.75;;;;;;;8.02;48.46;100138.38;2022675;80;20375;-73
2021/03/05 12:06:11;;;;;;;5.31;3.80;;;;;;;8.06;49.04;100127.25;2023130;80;20373;-73
2021/03/05 12:09:12;;;;;;;5.64;3.83;;;;;;;8.09;48.15;100130.78;2022650;80;20328;-72
2021/03/05 12:12:14;;;;;;;5.44;3.91;;;;;;;8.07;47.85;100128.97;2023100;80;20336;-73
2021/03/05 12:15:17;;;;;;;4.94;3.88;;;;;;;8.02;47.78;100122.88;2021551;80;20392;-73
2021/03/05 12:18:19;;;;;;;7.26;4.70;;;;;;;7.79;47.49;100133.66;2023143;80;20375;-74
2021/03/05 12:21:21;;;;;;;6.70;4.25;;;;;;;7.80;48.50;100122.50;2022200;80;20344;-73
2021/03/05 12:24:23;;;;;;;6.96;4.47;;;;;;;7.83;48.70;100132.88;2022145;80;20312;-72
2021/03/05 12:27:25;;;;;;;8.48;5.18;;;;;;;7.85;48.76;100131.19;2021992;80;20336;-73
2021/03/05 12:30:27;;;;;;;8.96;4.39;;;;;;;7.89;48.66;100126.94;2021628;80;20335;-73
2021/03/05 12:33:28;;;;;;;5.94;4.43;;;;;;;7.84;48.46;100121.69;2022116;80;20333;-73
2021/03/05 12:36:30;;;;;;;7.90;4.84;;;;;;;7.74;48.22;100124.09;2022498;80;20338;-73
2021/03/05 12:39:32;;;;;;;7.46;5.36;;;;;;;7.60;49.24;100125.53;2020171;80;20374;-74
2021/03/05 12:42:35;;;;;;;6.64;4.63;;;;;;;7.50;49.13;100122.78;2020271;80;20331;-70
2021/03/05 12:45:37;;;;;;;7.25;4.39;;;;;;;7.46;49.27;100122.69;2020175;80;20351;-70
2021/03/05 12:48:39;;;;;;;6.34;4.35;;;;;;;7.37;49.29;100127.69;2020615;80;20706;-73
2021/03/05 12:51:41;;;;;;;6.66;4.18;;;;;;;7.25;49.47;100130.88;2020577;80;20385;-72
2021/03/05 12:54:42;;;;;;;7.16;4.47;;;;;;;7.10;49.60;100134.00;2019625;80;20369;-72
2021/03/05 12:57:44;;;;;;;6.60;4.26;;;;;;;6.84;50.25;100136.03;2020616;79;20296;-73
2021/03/05 13:00:46;;;;;;;6.51;4.20;;;;;;;6.78;51.60;100127.25;2020643;80;20816;-75
2021/03/05 13:03:48;;;;;;;5.88;3.67;;;;;;;6.69;51.82;100140.84;2020616;80;20351;-72
2021/03/05 13:06:50;;;;;;;5.53;3.50;;;;;;;6.51;51.79;100138.69;2020718;80;20523;-73
2021/03/05 13:09:51;;;;;;;4.65;3.72;;;;;;;6.41;52.30;100138.44;2020499;80;20381;-72
2021/03/05 13:12:53;;;;;;;6.55;3.86;;;;;;;6.41;53.35;100144.44;2019985;80;21152;-75
2021/03/05 13:16:06;;;;;;;4.70;3.42;;;;;;;6.41;53.40;100147.03;2020795;80;21296;-72
2021/03/05 13:19:08;;;;;;;4.43;3.39;;;;;;;6.47;54.02;100142.03;2020559;80;20380;-71
2021/03/05 13:22:10;;;;;;;5.82;3.76;;;;;;;6.48;53.96;100148.06;2020425;80;20402;-71
2021/03/05 13:25:16;;;;;;;4.46;3.69;;;;;;;6.52;54.10;100148.19;2020141;80;20840;-71
2021/03/05 13:28:18;;;;;;;5.71;3.64;;;;;;;6.56;54.60;100149.13;2019558;80;20316;-72
2021/03/05 13:31:20;;;;;;;6.04;3.35;;;;;;;6.55;53.98;100147.38;2020137;80;20780;-71
2021/03/05 13:34:22;;;;;;;6.24;3.72;;;;;;;6.49;53.77;100157.56;2019650;80;20379;-72
2021/03/05 13:37:23;;;;;;;7.53;4.00;;;;;;;6.59;54.29;100154.34;2020551;80;20341;-73
2021/03/05 13:40:25;;;;;;;5.24;3.51;;;;;;;6.72;54.60;100158.09;2019406;80;20308;-71
2021/03/05 13:43:28;;;;;;;4.49;3.13;;;;;;;6.83;53.64;100149.78;2020233;80;20324;-73
2021/03/05 13:46:29;;;;;;;6.00;3.45;;;;;;;6.94;52.86;100162.91;2018098;80;21117;-72
2021/03/05 13:49:32;;;;;;;3.78;2.47;;;;;;;6.98;52.61;100152.66;2020044;80;20312;-72
2021/03/05 13:52:34;;;;;;;3.28;2.67;;;;;;;6.95;51.67;100159.47;2020374;80;20665;-72
2021/03/05 13:55:36;;;;;;;4.10;3.03;;;;;;;7.05;51.49;100164.03;2019702;80;20316;-72
2021/03/05 13:58:37;;;;;;;3.72;2.99;;;;;;;7.00;51.08;100165.63;2019448;80;20307;-72
2021/03/05 14:01:39;;;;;;;3.90;2.83;;;;;;;7.06;50.83;100173.50;2019902;80;21172;-73
2021/03/05 14:04:42;;;;;;;3.91;2.56;;;;;;;7.07;51.49;100175.25;2019995;80;20367;-72
2021/03/05 14:07:44;;;;;;;4.55;2.78;;;;;;;7.11;51.47;100173.59;2020157;80;20728;-72
2021/03/05 14:10:46;;;;;;;7.25;2.97;;;;;;;7.12;51.26;100177.94;2020223;80;20338;-72
2021/03/05 14:13:48;;;;;;;3.92;3.03;;;;;;;7.07;51.17;100179.56;2019720;80;20332;-75
2021/03/05 14:16:50;;;;;;;3.13;2.79;;;;;;;7.01;51.83;100182.88;2019252;80;20720;-72
2021/03/05 14:19:52;;;;;;;3.74;2.71;;;;;;;6.95;51.55;100190.47;2019185;80;20475;-73
2021/03/05 14:22:54;;;;;;;4.40;2.56;;;;;;;6.90;51.52;100194.66;2020375;80;20376;-73
2021/03/05 14:25:55;;;;;;;3.34;3.04;;;;;;;6.77;51.23;100192.63;2019894;80;20787;-73
2021/03/05 14:28:57;;;;;;;5.03;2.72;;;;;;;6.74;52.13;100205.44;2020351;80;20998;-72
2021/03/05 14:31:58;;;;;;;4.15;2.85;;;;;;;6.75;52.55;100212.34;2020510;80;20347;-72